Auxvasse, MO

6:37 PM CDT on August 01, 2015 (GMT -0500)
Near Lakeview Lake | | Change Station
CLOSE
Current Station
Personal Weather Station
Location: Mexico, MO
Elevation: 817 ft
Nearby Weather Stations

Elev 817 ft 39.16 °N, 91.89 °W | Updated 0 second ago

Partly Cloudy
Partly Cloudy
79.9 °F
Feels Like 83 °F
N
0.0
Wind Variable Wind from West
Gusts 3.0 mph

Today
High -- | Low -- °F
--% Chance of Precip.
Yesterday
High -- | Low -- °F
Precip. -- in
6:08 AM 8:19 PM
Waning Gibbous, 97% visible
Pressure 30.01 in
Visibility 10.0 miles
Clouds Mostly Cloudy 5000 ft
Mostly Cloudy 7000 ft
Mostly Cloudy 11000 ft
Heat Index 83 °F
Dew Point 70 °F
Humidity 71%
Rainfall 0.00 in
Snow Depth Not available.
UV 1 out of 12
Pollen 6.70 out of 12
Air Quality Not available.
Flu Activity Not available.
SPECI KCOU 012334Z 32009KT 10SM VCTS -RA BKN050 BKN070 BKN110 24/21 A3001 RMK AO2 RAB13 P0000 T02390211 $

More Conditions Fewer Conditions

Pressure 30.01 in
Visibility 10.0 miles
Clouds Mostly Cloudy 5000 ft
Mostly Cloudy 7000 ft
Mostly Cloudy 11000 ft
Heat Index 83 °F
Dew Point 70 °F
Humidity 71%
Rainfall 0.00 in
Snow Depth Not available.
UV 1 out of 12
Pollen 6.70 out of 12
Air Quality Not available.
Flu Activity Not available.
SPECI KCOU 012334Z 32009KT 10SM VCTS -RA BKN050 BKN070 BKN110 24/21 A3001 RMK AO2 RAB13 P0000 T02390211 $

More Conditions Fewer Conditions

10-Day Weather Forecast

×

Almanac

Astronomy

Aug. 01, 2015 Rise Set
Actual Time
Civil Twilight
Nautical Twilight
Astronomical Twilight
Moon
Length of Visible Light
Length of Day
Tomorrow will be .
, % of the Moon is Illuminated

Today's Extremes

State Highs State Lows

Community

WunderPhotos

Upload Photos

1,843,091 photos uploaded!

WunderBlogs® & News

Nearby

Air Quality

  Air Quality AQ Index Pollutant
Not available.

Snow Depth

Station Depth Elevation

Earthquake Activity

City Distance Mag. Time & Date
Minimum magnitude displayed is 2.5.

Coastal Water Temperatures

Place Temperature

Stations

Nearby Weather Stations

Station Location Temp. Windchill Dew Point Humidity Wind Precip. Elev Updated Type